Terminal Aerodrome Forecast
Issued by NWS

Home | Current Version | Previous Version | Text Only | Print | Product List | Glossary On
Versions: 1 2 3 4 5 6 7 8 9 10 11 12 13 14 15 16 17 18 19 20 21 22 23 24 25
000
FTUS43 KIND 272325
TAFLAF
TAF
KLAF 272325Z 2800/2824 19006KT P6SM FEW030 SCT250
     FM280200 18003KT P6SM SCT250
      TEMPO 2804/2806 4SM BR
     FM280600 20003KT 1 1/2SM BR SCT250
      TEMPO 2808/2812 3/4SM BR
     FM281400 10005KT P6SM SCT025 BKN250
      AMD LTD TO CLD VIS AND WIND 2801/2813=

USA.gov is the U.S. government's official web portal to all federal, state and local government web resources and services.